Time;durP1;ratioP1;P1;durP2;ratioP2;P2;SDS_P1;SDS_P2;PMS_P1;PMS_P2;Temp;Humidity;BMP_temperature;BMP_pressure;BME280_temperature;BME280_humidity;BME280_pressure;Samples;Min_cycle;Max_cycle;Signal;HPM_P1;HPM_P2
2022/12/01 00:00:54;;;;;;;14.90;10.17;;;;;;;;;;5067316;28;20242;-76
2022/12/01 00:03:20;;;;;;;14.13;9.77;;;;;;;;;;5078668;28;20648;-78
2022/12/01 00:05:46;;;;;;;17.97;11.00;;;;;;;;;;5085826;28;20496;-75
2022/12/01 00:08:12;;;;;;;17.57;10.27;;;;;;;;;;5098922;28;20777;-76
2022/12/01 00:10:39;;;;;;;20.70;12.57;;;;;;;;;;5082153;28;20204;-76
2022/12/01 00:13:05;;;;;;;18.13;11.30;;;;;;;;;;5087813;28;20177;-77
2022/12/01 00:15:36;;;;;;;17.87;10.43;;;;;;;;;;5087234;28;20263;-76
2022/12/01 00:18:04;;;;;;;21.50;11.90;;;;;;;;;;5072723;28;20204;-76
2022/12/01 00:20:32;;;;;;;17.17;10.93;;;;;;;;;;5071267;28;20516;-76
2022/12/01 00:22:58;;;;;;;20.53;12.00;;;;;;;;;;5086337;28;20185;-77
2022/12/01 00:25:24;;;;;;;18.53;11.83;;;;;;;;;;5075556;28;20262;-77
2022/12/01 00:27:51;;;;;;;16.47;11.07;;;;;;;;;;5083520;28;20203;-77
2022/12/01 00:30:19;;;;;;;22.60;13.40;;;;;;;;;;5074650;28;20177;-78
2022/12/01 00:32:45;;;;;;;20.90;12.73;;;;;;;;;;5084278;28;20267;-77
2022/12/01 00:35:12;;;;;;;17.10;11.67;;;;;;;;;;5077155;28;20268;-77
2022/12/01 00:37:38;;;;;;;18.43;12.43;;;;;;;;;;5096583;28;20577;-77
2022/12/01 00:40:05;;;;;;;24.03;13.90;;;;;;;;;;5066519;28;20207;-78
2022/12/01 00:42:31;;;;;;;19.73;12.07;;;;;;;;;;5086518;28;20236;-77
2022/12/01 00:44:57;;;;;;;18.83;11.57;;;;;;;;;;5065506;28;20192;-77
2022/12/01 00:47:24;;;;;;;19.20;12.50;;;;;;;;;;5079827;28;20196;-77
2022/12/01 00:49:51;;;;;;;17.00;11.53;;;;;;;;;;5085642;28;20200;-77
2022/12/01 00:52:18;;;;;;;20.63;12.57;;;;;;;;;;5084693;28;20517;-77
2022/12/01 00:54:44;;;;;;;19.30;12.43;;;;;;;;;;5094319;28;20823;-77
2022/12/01 00:57:11;;;;;;;23.87;14.70;;;;;;;;;;5082303;28;20197;-77
2022/12/01 00:59:38;;;;;;;20.70;13.17;;;;;;;;;;5082163;28;20185;-77
2022/12/01 01:02:05;;;;;;;19.17;12.30;;;;;;;;;;5093939;28;20405;-77
2022/12/01 01:04:32;;;;;;;18.60;12.20;;;;;;;;;;5086612;28;20652;-77
2022/12/01 01:06:59;;;;;;;20.53;12.60;;;;;;;;;;5088172;28;20703;-78
2022/12/01 01:09:25;;;;;;;19.50;12.20;;;;;;;;;;5080107;28;20167;-77
2022/12/01 01:11:52;;;;;;;18.63;12.10;;;;;;;;;;5079107;28;20180;-77
2022/12/01 01:14:18;;;;;;;20.37;13.27;;;;;;;;;;5090003;28;20676;-78
2022/12/01 01:16:44;;;;;;;20.00;12.80;;;;;;;;;;5079731;28;20196;-77
2022/12/01 01:19:10;;;;;;;19.87;12.67;;;;;;;;;;5084059;28;20595;-77
2022/12/01 01:21:36;;;;;;;21.03;13.87;;;;;;;;;;5093514;28;20180;-77
2022/12/01 01:24:03;;;;;;;21.67;13.83;;;;;;;;;;5060139;28;20183;-77
2022/12/01 01:26:30;;;;;;;23.10;14.10;;;;;;;;;;5091188;28;20199;-77
2022/12/01 01:28:57;;;;;;;20.70;14.03;;;;;;;;;;5087541;28;20196;-77
2022/12/01 01:31:24;;;;;;;20.33;13.03;;;;;;;;;;5087418;28;20183;-78
2022/12/01 01:33:51;;;;;;;27.83;15.93;;;;;;;;;;5033947;28;20199;-77
2022/12/01 01:36:18;;;;;;;21.23;13.63;;;;;;;;;;5080960;28;20226;-77
2022/12/01 01:38:44;;;;;;;21.33;13.37;;;;;;;;;;5066685;28;20361;-77
2022/12/01 01:41:11;;;;;;;26.50;15.90;;;;;;;;;;5083727;28;20208;-77
2022/12/01 01:43:45;;;;;;;26.77;16.17;;;;;;;;;;5062882;28;20185;-78
2022/12/01 01:46:16;;;;;;;28.43;17.10;;;;;;;;;;5079579;28;20204;-77
2022/12/01 01:48:44;;;;;;;23.97;14.33;;;;;;;;;;5069570;28;20212;-77
2022/12/01 01:51:12;;;;;;;24.17;14.27;;;;;;;;;;5083052;28;20211;-77
2022/12/01 01:53:38;;;;;;;22.77;13.47;;;;;;;;;;5082190;28;20177;-77
2022/12/01 01:56:06;;;;;;;24.60;14.57;;;;;;;;;;5090226;28;20185;-77
2022/12/01 01:58:33;;;;;;;22.83;14.73;;;;;;;;;;5088401;28;20274;-77
2022/12/01 02:00:59;;;;;;;23.90;14.87;;;;;;;;;;5083394;28;20188;-77
2022/12/01 02:03:25;;;;;;;21.73;13.80;;;;;;;;;;5091470;28;20208;-77
2022/12/01 02:05:52;;;;;;;21.87;13.97;;;;;;;;;;5094514;28;20193;-76
2022/12/01 02:08:18;;;;;;;22.73;14.60;;;;;;;;;;5094505;28;20195;-77
2022/12/01 02:11:10;;;;;;;21.43;14.13;;;;;;;;;;5094478;28;20234;-77
2022/12/01 02:13:44;;;;;;;20.80;13.50;;;;;;;;;;5067160;28;20181;-77
2022/12/01 02:16:19;;;;;;;21.67;13.73;;;;;;;;;;5094355;28;20522;-76
2022/12/01 02:18:56;;;;;;;21.90;14.33;;;;;;;;;;5094904;28;20220;-77
2022/12/01 02:21:36;;;;;;;20.60;13.77;;;;;;;;;;5045172;28;20192;-77
2022/12/01 02:24:21;;;;;;;21.23;14.40;;;;;;;;;;5072300;28;20718;-76
2022/12/01 02:27:06;;;;;;;22.53;14.50;;;;;;;;;;5085455;28;20526;-77
2022/12/01 02:29:51;;;;;;;22.40;14.73;;;;;;;;;;5063191;28;20184;-76
2022/12/01 02:32:26;;;;;;;25.17;14.77;;;;;;;;;;5083431;28;20176;-76
2022/12/01 02:34:58;;;;;;;21.73;13.90;;;;;;;;;;5065325;28;20217;-77
2022/12/01 02:37:24;;;;;;;21.97;14.77;;;;;;;;;;5087891;28;20208;-76
2022/12/01 02:39:55;;;;;;;24.57;14.80;;;;;;;;;;5083344;28;20207;-77
2022/12/01 02:42:48;;;;;;;22.53;14.30;;;;;;;;;;5080960;28;20184;-77
2022/12/01 02:45:20;;;;;;;21.93;14.43;;;;;;;;;;5075307;28;20249;-76
2022/12/01 02:47:46;;;;;;;25.57;15.13;;;;;;;;;;5072242;28;20201;-76
2022/12/01 02:50:13;;;;;;;21.83;14.30;;;;;;;;;;5064149;28;20203;-77
2022/12/01 02:52:40;;;;;;;22.37;14.17;;;;;;;;;;5092892;28;20251;-76
2022/12/01 02:55:06;;;;;;;21.43;14.47;;;;;;;;;;5066441;28;20206;-76
2022/12/01 02:57:32;;;;;;;23.30;14.47;;;;;;;;;;5077069;28;20788;-76
2022/12/01 02:59:59;;;;;;;21.47;13.57;;;;;;;;;;5081866;28;20831;-76
2022/12/01 03:02:47;;;;;;;24.43;14.97;;;;;;;;;;5084778;28;20205;-76
2022/12/01 03:05:20;;;;;;;24.77;14.50;;;;;;;;;;5081487;28;20706;-78
2022/12/01 03:07:49;;;;;;;20.67;14.30;;;;;;;;;;5089925;28;20240;-77
2022/12/01 03:10:15;;;;;;;20.73;13.07;;;;;;;;;;5067075;28;20177;-77
2022/12/01 03:12:54;;;;;;;23.10;14.43;;;;;;;;;;5088451;28;20211;-77
2022/12/01 03:15:20;;;;;;;21.80;14.50;;;;;;;;;;5092225;28;20655;-77
2022/12/01 03:17:49;;;;;;;22.77;14.47;;;;;;;;;;5090719;28;20239;-77
2022/12/01 03:20:26;;;;;;;20.40;13.80;;;;;;;;;;5089955;28;20180;-77
2022/12/01 03:22:56;;;;;;;20.53;13.80;;;;;;;;;;5085754;28;20657;-77
2022/12/01 03:25:23;;;;;;;20.57;13.73;;;;;;;;;;5088622;28;20233;-77
2022/12/01 03:27:55;;;;;;;20.60;13.60;;;;;;;;;;5089784;28;20260;-77
2022/12/01 03:30:22;;;;;;;21.23;13.80;;;;;;;;;;5092451;28;20184;-77
2022/12/01 03:32:56;;;;;;;22.20;14.53;;;;;;;;;;5090075;28;20180;-77
2022/12/01 03:35:22;;;;;;;23.77;15.03;;;;;;;;;;5089329;28;20180;-77
2022/12/01 03:38:12;;;;;;;22.80;14.23;;;;;;;;;;5097283;28;20237;-77
2022/12/01 03:40:38;;;;;;;25.47;15.20;;;;;;;;;;5085368;28;20327;-77
2022/12/01 03:43:10;;;;;;;23.57;14.60;;;;;;;;;;5083553;28;20597;-77
2022/12/01 03:45:43;;;;;;;21.40;14.00;;;;;;;;;;5093680;28;20573;-77
2022/12/01 03:48:09;;;;;;;20.43;13.60;;;;;;;;;;5085280;28;20200;-77
2022/12/01 03:50:47;;;;;;;21.00;14.00;;;;;;;;;;5074896;28;20187;-77
2022/12/01 03:53:18;;;;;;;20.43;14.40;;;;;;;;;;5072130;28;20180;-77
2022/12/01 03:55:46;;;;;;;19.73;13.33;;;;;;;;;;5074334;28;20177;-77
2022/12/01 03:58:20;;;;;;;20.07;14.43;;;;;;;;;;5072956;28;20201;-77
2022/12/01 04:00:56;;;;;;;22.57;14.67;;;;;;;;;;5084481;28;20178;-77
2022/12/01 04:03:25;;;;;;;20.57;13.67;;;;;;;;;;5083284;28;20188;-77
2022/12/01 04:05:51;;;;;;;18.10;12.67;;;;;;;;;;5092612;28;20196;-77
2022/12/01 04:08:18;;;;;;;21.53;13.43;;;;;;;;;;5085220;28;20196;-77
2022/12/01 04:10:44;;;;;;;21.63;13.80;;;;;;;;;;5075602;28;20196;-77
2022/12/01 04:13:21;;;;;;;21.83;13.60;;;;;;;;;;5063073;28;20227;-77
2022/12/01 04:15:49;;;;;;;20.50;13.80;;;;;;;;;;5073954;28;20199;-77
2022/12/01 04:18:15;;;;;;;20.23;13.10;;;;;;;;;;5060870;28;20200;-77
2022/12/01 04:20:44;;;;;;;20.07;13.13;;;;;;;;;;5075544;28;20240;-77
2022/12/01 04:23:58;;;;;;;20.83;13.50;;;;;;;;;;5077653;28;20181;-77
2022/12/01 04:26:00;;;;;;;18.67;12.47;;;;;;;;;;5065160;28;20204;-77
2022/12/01 04:28:28;;;;;;;18.87;12.47;;;;;;;;;;5074322;28;20200;-77
2022/12/01 04:30:54;;;;;;;20.37;13.90;;;;;;;;;;5074193;28;20233;-77
2022/12/01 04:33:21;;;;;;;21.17;13.20;;;;;;;;;;5088146;28;20896;-77
2022/12/01 04:35:55;;;;;;;20.50;12.87;;;;;;;;;;5072916;28;20176;-77
2022/12/01 04:38:21;;;;;;;22.20;14.13;;;;;;;;;;5067945;28;20718;-77
2022/12/01 04:40:48;;;;;;;19.90;13.33;;;;;;;;;;5076291;28;20209;-77
2022/12/01 04:43:14;;;;;;;20.13;13.27;;;;;;;;;;5091219;28;20191;-77
2022/12/01 04:45:40;;;;;;;20.37;13.67;;;;;;;;;;5076434;28;20954;-78
2022/12/01 04:48:06;;;;;;;23.30;13.57;;;;;;;;;;5083278;28;20816;-77
2022/12/01 04:50:32;;;;;;;24.02;17.17;;;;;;;;;;5074641;28;20431;-77
2022/12/01 04:52:58;;;;;;;22.03;14.63;;;;;;;;;;5083596;28;20662;-77
2022/12/01 04:55:25;;;;;;;21.47;14.67;;;;;;;;;;5078116;28;20185;-77
2022/12/01 04:57:51;;;;;;;20.57;13.27;;;;;;;;;;5074253;28;20204;-78
2022/12/01 05:00:17;;;;;;;19.13;13.03;;;;;;;;;;5076015;28;20180;-77
2022/12/01 05:02:44;;;;;;;19.57;13.47;;;;;;;;;;5060821;28;20271;-77
2022/12/01 05:05:11;;;;;;;19.27;12.33;;;;;;;;;;5079464;28;20821;-76
2022/12/01 05:07:37;;;;;;;20.87;12.60;;;;;;;;;;5078157;28;20284;-77
2022/12/01 05:10:03;;;;;;;21.00;13.10;;;;;;;;;;5076832;28;20257;-77
2022/12/01 05:12:30;;;;;;;19.87;12.90;;;;;;;;;;5079842;28;20191;-77
2022/12/01 05:14:56;;;;;;;20.07;12.63;;;;;;;;;;5083977;28;20186;-77
2022/12/01 05:17:22;;;;;;;22.57;13.37;;;;;;;;;;5085090;28;20287;-77
2022/12/01 05:22:33;;;;;;;19.73;12.37;;;;;;;;;;5080341;28;20213;-77
2022/12/01 05:24:59;;;;;;;20.07;12.57;;;;;;;;;;5079796;28;20214;-77
2022/12/01 05:27:25;;;;;;;21.80;12.70;;;;;;;;;;5074966;28;20197;-77
2022/12/01 05:29:51;;;;;;;19.30;11.93;;;;;;;;;;5068204;28;20181;-77
2022/12/01 05:32:17;;;;;;;20.07;12.60;;;;;;;;;;5075978;28;20648;-77
2022/12/01 05:34:44;;;;;;;20.20;13.95;;;;;;;;;;5080040;28;20523;-77
2022/12/01 05:37:10;;;;;;;19.33;12.90;;;;;;;;;;5073585;28;20216;-77
2022/12/01 05:39:36;;;;;;;18.47;12.83;;;;;;;;;;5088563;28;20299;-77
2022/12/01 05:42:03;;;;;;;19.80;12.90;;;;;;;;;;5077326;28;20211;-77
2022/12/01 05:44:29;;;;;;;22.65;14.52;;;;;;;;;;5084050;28;20432;-77
2022/12/01 05:46:55;;;;;;;18.57;12.57;;;;;;;;;;5077952;28;20216;-77
2022/12/01 05:49:21;;;;;;;20.17;13.50;;;;;;;;;;5086413;28;20184;-77
2022/12/01 05:51:48;;;;;;;20.33;12.37;;;;;;;;;;5084489;28;20185;-77
2022/12/01 05:54:15;;;;;;;18.77;12.50;;;;;;;;;;5081481;28;20180;-77
2022/12/01 05:56:41;;;;;;;19.13;13.70;;;;;;;;;;5074852;28;20189;-77
2022/12/01 05:59:07;;;;;;;22.53;14.23;;;;;;;;;;5078546;28;20177;-77
2022/12/01 06:01:33;;;;;;;20.37;12.73;;;;;;;;;;5082702;28;20279;-77
2022/12/01 06:03:59;;;;;;;23.70;14.20;;;;;;;;;;5081837;28;20184;-77
2022/12/01 06:06:25;;;;;;;21.87;13.80;;;;;;;;;;5076977;28;20247;-77
2022/12/01 06:08:52;;;;;;;21.10;13.50;;;;;;;;;;5070492;28;20211;-77
2022/12/01 06:11:18;;;;;;;22.00;13.37;;;;;;;;;;5056986;28;20185;-78
2022/12/01 06:13:44;;;;;;;18.97;12.77;;;;;;;;;;5075376;28;20288;-77
2022/12/01 06:16:10;;;;;;;22.27;13.90;;;;;;;;;;5074216;28;20192;-77
2022/12/01 06:18:37;;;;;;;20.00;13.37;;;;;;;;;;5079860;28;20250;-77
2022/12/01 06:21:04;;;;;;;21.30;13.40;;;;;;;;;;5057635;28;20268;-77
2022/12/01 06:23:31;;;;;;;19.03;12.97;;;;;;;;;;5079095;28;20233;-77
2022/12/01 06:25:57;;;;;;;21.53;13.57;;;;;;;;;;5072360;28;20205;-77
2022/12/01 06:28:24;;;;;;;20.70;13.40;;;;;;;;;;5082189;28;20212;-77
2022/12/01 06:30:50;;;;;;;21.37;14.10;;;;;;;;;;5085556;28;20176;-77
2022/12/01 06:33:16;;;;;;;20.50;13.57;;;;;;;;;;5072486;28;20245;-80
2022/12/01 06:35:42;;;;;;;20.87;13.83;;;;;;;;;;5072705;28;20185;-78
2022/12/01 06:38:08;;;;;;;22.43;14.23;;;;;;;;;;5084537;28;20195;-74
2022/12/01 06:40:35;;;;;;;21.10;13.90;;;;;;;;;;5083010;28;20185;-77
2022/12/01 06:43:01;;;;;;;20.50;13.67;;;;;;;;;;5097656;28;20187;-78
2022/12/01 06:45:28;;;;;;;20.93;13.67;;;;;;;;;;5071681;28;20731;-77
2022/12/01 06:47:55;;;;;;;20.07;13.20;;;;;;;;;;5088305;28;20236;-76
2022/12/01 06:50:21;;;;;;;19.63;12.90;;;;;;;;;;5062271;28;20183;-76
2022/12/01 06:52:47;;;;;;;20.37;13.23;;;;;;;;;;5074749;28;20180;-77
2022/12/01 06:55:14;;;;;;;20.10;12.80;;;;;;;;;;5087101;28;20191;-74
2022/12/01 06:57:40;;;;;;;19.50;13.40;;;;;;;;;;5090592;28;20287;-77
2022/12/01 07:00:07;;;;;;;19.80;13.30;;;;;;;;;;5083615;28;20659;-78
2022/12/01 07:02:33;;;;;;;20.88;15.57;;;;;;;;;;5071112;28;20425;-80
2022/12/01 07:05:00;;;;;;;18.77;13.90;;;;;;;;;;5036695;28;20212;-77
2022/12/01 07:07:29;;;;;;;19.40;13.00;;;;;;;;;;5088056;28;20206;-72
2022/12/01 07:09:56;;;;;;;17.63;11.83;;;;;;;;;;5081871;28;20247;-78
2022/12/01 07:12:22;;;;;;;18.63;13.00;;;;;;;;;;5090239;28;20207;-74
2022/12/01 07:14:48;;;;;;;18.20;12.80;;;;;;;;;;5088315;28;21874;-77
2022/12/01 07:17:14;;;;;;;19.77;12.23;;;;;;;;;;5084532;28;20295;-78
2022/12/01 07:19:40;;;;;;;19.60;14.17;;;;;;;;;;5100610;28;20184;-77
2022/12/01 07:22:06;;;;;;;18.70;12.87;;;;;;;;;;5098545;28;20176;-78
2022/12/01 07:24:32;;;;;;;20.40;13.53;;;;;;;;;;5071019;28;20189;-79
2022/12/01 07:26:58;;;;;;;19.27;12.97;;;;;;;;;;5075301;28;20216;-79
2022/12/01 07:29:25;;;;;;;19.67;13.97;;;;;;;;;;5065152;28;20189;-79
2022/12/01 07:31:51;;;;;;;20.73;13.47;;;;;;;;;;5055142;28;20194;-79
2022/12/01 07:34:20;;;;;;;18.30;12.47;;;;;;;;;;5070947;28;20193;-79
2022/12/01 07:36:46;;;;;;;20.07;13.53;;;;;;;;;;5098994;28;20179;-79
2022/12/01 07:39:12;;;;;;;18.70;13.20;;;;;;;;;;5085566;28;20232;-79
2022/12/01 07:41:38;;;;;;;18.90;11.93;;;;;;;;;;5075232;28;20283;-79
2022/12/01 07:44:04;;;;;;;16.53;11.97;;;;;;;;;;5058825;28;20179;-79
2022/12/01 07:46:31;;;;;;;19.50;13.13;;;;;;;;;;5072963;28;20819;-79
2022/12/01 07:48:58;;;;;;;20.67;12.00;;;;;;;;;;5057567;28;20196;-79
2022/12/01 07:51:24;;;;;;;18.00;12.77;;;;;;;;;;5073242;28;20295;-79
2022/12/01 07:53:51;;;;;;;19.37;13.00;;;;;;;;;;5053754;28;20230;-78
2022/12/01 07:56:18;;;;;;;17.10;12.07;;;;;;;;;;5074341;28;20204;-79
2022/12/01 07:58:44;;;;;;;21.00;13.60;;;;;;;;;;5096866;28;20204;-79
2022/12/01 08:01:12;;;;;;;20.53;13.60;;;;;;;;;;5090095;28;20176;-79
2022/12/01 08:03:38;;;;;;;19.63;13.63;;;;;;;;;;5083061;28;20192;-79
2022/12/01 08:06:05;;;;;;;17.90;12.23;;;;;;;;;;5074025;28;20224;-79
2022/12/01 08:08:32;;;;;;;19.60;12.93;;;;;;;;;;5074550;28;20204;-79
2022/12/01 08:11:00;;;;;;;17.83;12.30;;;;;;;;;;5068404;28;20180;-79
2022/12/01 08:13:27;;;;;;;19.33;13.30;;;;;;;;;;5099731;28;20198;-79
2022/12/01 08:15:53;;;;;;;19.60;13.17;;;;;;;;;;5070807;28;20185;-79
2022/12/01 08:18:19;;;;;;;19.60;12.83;;;;;;;;;;5087892;28;20246;-79
2022/12/01 08:20:45;;;;;;;20.63;12.43;;;;;;;;;;5044494;28;20189;-79
2022/12/01 08:23:12;;;;;;;18.87;12.67;;;;;;;;;;5071544;28;20231;-79
2022/12/01 08:25:38;;;;;;;21.00;12.57;;;;;;;;;;5067579;28;20267;-79
2022/12/01 08:28:04;;;;;;;19.60;11.97;;;;;;;;;;5087345;28;20223;-79
2022/12/01 08:30:30;;;;;;;17.70;12.50;;;;;;;;;;5080582;28;20193;-80
2022/12/01 08:32:57;;;;;;;18.33;12.33;;;;;;;;;;5068091;28;20181;-79
2022/12/01 08:35:24;;;;;;;17.53;11.87;;;;;;;;;;5070353;28;20184;-80
2022/12/01 08:37:53;;;;;;;18.73;11.97;;;;;;;;;;5067169;28;20318;-80
2022/12/01 08:40:20;;;;;;;19.30;12.20;;;;;;;;;;5062032;28;20191;-80
2022/12/01 08:42:47;;;;;;;18.60;12.17;;;;;;;;;;5090812;28;20267;-79
2022/12/01 08:45:13;;;;;;;18.67;11.60;;;;;;;;;;5069048;28;20292;-79
2022/12/01 08:47:39;;;;;;;17.50;12.27;;;;;;;;;;5050331;28;20197;-79
2022/12/01 08:50:05;;;;;;;18.33;12.00;;;;;;;;;;5051677;28;20191;-80
2022/12/01 08:52:32;;;;;;;18.97;12.30;;;;;;;;;;5088476;28;20175;-79
2022/12/01 08:54:58;;;;;;;18.07;12.10;;;;;;;;;;5067063;28;20207;-79
2022/12/01 08:57:25;;;;;;;17.07;11.87;;;;;;;;;;5079967;28;20216;-79
2022/12/01 08:59:51;;;;;;;18.60;12.50;;;;;;;;;;5078203;28;20544;-80
2022/12/01 09:02:23;;;;;;;19.93;12.20;;;;;;;;;;5080825;28;20177;-79
2022/12/01 09:04:50;;;;;;;21.13;12.93;;;;;;;;;;5079552;28;20582;-78
2022/12/01 09:07:16;;;;;;;16.37;11.70;;;;;;;;;;5085774;28;20252;-79
2022/12/01 09:09:43;;;;;;;17.03;11.43;;;;;;;;;;5059198;28;20181;-79
2022/12/01 09:12:10;;;;;;;17.10;11.50;;;;;;;;;;5098200;28;20177;-79
2022/12/01 09:14:38;;;;;;;19.63;13.00;;;;;;;;;;5092139;28;20179;-79
2022/12/01 09:17:04;;;;;;;22.60;12.87;;;;;;;;;;5082819;28;20200;-79
2022/12/01 09:19:30;;;;;;;19.20;11.90;;;;;;;;;;5083631;28;20270;-79
2022/12/01 09:21:57;;;;;;;19.27;12.53;;;;;;;;;;5086094;28;20252;-79
2022/12/01 09:24:23;;;;;;;18.13;12.00;;;;;;;;;;5073025;28;20692;-79
2022/12/01 09:26:49;;;;;;;18.70;12.13;;;;;;;;;;5055400;28;20239;-79
2022/12/01 09:29:16;;;;;;;18.03;11.87;;;;;;;;;;5081331;28;20264;-79
2022/12/01 09:31:42;;;;;;;18.43;12.30;;;;;;;;;;5088605;28;20198;-79
2022/12/01 09:34:11;;;;;;;17.53;11.50;;;;;;;;;;5075044;28;20245;-79
2022/12/01 09:36:38;;;;;;;15.47;10.43;;;;;;;;;;5085425;28;20184;-79
2022/12/01 09:39:05;;;;;;;17.20;11.63;;;;;;;;;;5075174;28;20196;-79
2022/12/01 09:41:31;;;;;;;16.90;11.73;;;;;;;;;;5082584;28;20200;-79
2022/12/01 09:44:12;;;;;;;16.30;11.67;;;;;;;;;;5083162;28;20732;-79
2022/12/01 09:46:40;;;;;;;15.50;11.07;;;;;;;;;;5057697;28;20239;-79
2022/12/01 09:49:12;;;;;;;16.63;11.03;;;;;;;;;;5076074;28;20928;-79
2022/12/01 09:51:38;;;;;;;17.07;11.57;;;;;;;;;;5085225;28;20239;-79
2022/12/01 09:54:06;;;;;;;16.77;11.17;;;;;;;;;;5079475;28;20181;-79
2022/12/01 09:56:36;;;;;;;16.40;11.17;;;;;;;;;;5090442;28;20192;-79
2022/12/01 09:59:06;;;;;;;16.87;11.60;;;;;;;;;;5094968;28;20696;-79
2022/12/01 10:01:36;;;;;;;18.23;12.13;;;;;;;;;;5074240;28;20199;-79
2022/12/01 10:04:10;;;;;;;16.83;11.27;;;;;;;;;;5098736;28;20185;-79
2022/12/01 10:06:39;;;;;;;18.03;12.10;;;;;;;;;;5074577;28;20248;-79
2022/12/01 10:09:21;;;;;;;16.40;11.57;;;;;;;;;;5067482;28;20266;-79
2022/12/01 10:11:48;;;;;;;16.93;11.60;;;;;;;;;;5095258;28;20185;-79
2022/12/01 10:14:16;;;;;;;15.83;10.87;;;;;;;;;;5072202;28;20180;-78
2022/12/01 10:16:46;;;;;;;14.50;10.53;;;;;;;;;;5070947;28;20566;-79
2022/12/01 10:19:40;;;;;;;15.60;11.10;;;;;;;;;;5077573;28;20192;-79
2022/12/01 10:22:17;;;;;;;14.30;10.27;;;;;;;;;;5063050;28;20276;-80
2022/12/01 10:24:43;;;;;;;15.47;11.20;;;;;;;;;;5080084;28;20321;-79
2022/12/01 10:27:09;;;;;;;14.33;10.30;;;;;;;;;;5096987;28;20216;-79
2022/12/01 10:29:43;;;;;;;14.77;10.83;;;;;;;;;;5080692;28;20264;-79
2022/12/01 10:32:16;;;;;;;14.00;10.37;;;;;;;;;;5079387;28;20174;-79
2022/12/01 10:34:45;;;;;;;15.73;10.50;;;;;;;;;;5074446;28;20180;-79
2022/12/01 10:37:38;;;;;;;15.50;10.57;;;;;;;;;;5100353;28;20207;-79
2022/12/01 10:40:05;;;;;;;16.33;11.10;;;;;;;;;;5068970;28;20254;-79
2022/12/01 10:42:42;;;;;;;15.90;10.90;;;;;;;;;;5088517;28;20180;-79
2022/12/01 10:45:16;;;;;;;16.13;10.80;;;;;;;;;;5093105;28;20216;-79
2022/12/01 10:48:01;;;;;;;15.70;10.60;;;;;;;;;;5081437;28;20205;-79
2022/12/01 10:50:27;;;;;;;15.70;11.30;;;;;;;;;;5073131;28;20196;-74
2022/12/01 10:52:54;;;;;;;15.20;11.10;;;;;;;;;;5057670;28;20212;-78
2022/12/01 10:55:29;;;;;;;16.23;10.73;;;;;;;;;;5091684;28;20185;-86
2022/12/01 10:57:57;;;;;;;14.57;10.77;;;;;;;;;;5077224;28;20207;-84
2022/12/01 11:00:29;;;;;;;15.13;10.77;;;;;;;;;;5092139;28;20472;-86
2022/12/01 11:02:56;;;;;;;13.57;9.97;;;;;;;;;;5065290;28;20185;-87
2022/12/01 11:05:27;;;;;;;15.87;10.77;;;;;;;;;;5094969;28;20690;-86
2022/12/01 11:07:55;;;;;;;15.80;9.77;;;;;;;;;;5067092;28;20564;-83
2022/12/01 11:10:24;;;;;;;15.30;10.13;;;;;;;;;;5078243;28;20172;-84
2022/12/01 11:12:58;;;;;;;16.40;10.73;;;;;;;;;;5055902;28;20192;-84
2022/12/01 11:15:27;;;;;;;18.80;12.60;;;;;;;;;;5064231;28;20611;-83
2022/12/01 11:17:57;;;;;;;18.80;12.10;;;;;;;;;;5054217;28;21272;-81
2022/12/01 11:20:25;;;;;;;16.07;11.30;;;;;;;;;;5063599;28;20207;-82
2022/12/01 11:22:51;;;;;;;16.33;11.30;;;;;;;;;;5073612;28;20284;-84
2022/12/01 11:25:20;;;;;;;16.63;11.33;;;;;;;;;;5069956;28;20290;-80
2022/12/01 11:27:52;;;;;;;18.90;11.57;;;;;;;;;;5092341;28;20602;-80
2022/12/01 11:30:23;;;;;;;16.33;11.30;;;;;;;;;;5081673;28;20200;-84
2022/12/01 11:32:54;;;;;;;15.43;10.83;;;;;;;;;;5045985;28;20293;-84
2022/12/01 11:35:21;;;;;;;15.90;11.03;;;;;;;;;;5060498;28;20195;-81
2022/12/01 11:37:50;;;;;;;16.13;11.37;;;;;;;;;;5072221;28;20204;-82
2022/12/01 11:40:22;;;;;;;17.47;11.53;;;;;;;;;;5090524;28;20188;-81
2022/12/01 11:42:50;;;;;;;15.37;10.77;;;;;;;;;;5072905;28;20303;-81
2022/12/01 11:45:19;;;;;;;15.93;11.57;;;;;;;;;;5072584;28;20299;-80
2022/12/01 11:47:59;;;;;;;16.73;11.53;;;;;;;;;;5091236;28;20211;-82
2022/12/01 11:50:28;;;;;;;15.33;10.87;;;;;;;;;;5074525;28;20586;-77
2022/12/01 11:52:54;;;;;;;19.87;11.40;;;;;;;;;;5091777;28;20180;-74
2022/12/01 11:55:22;;;;;;;18.47;11.57;;;;;;;;;;5086223;28;20191;-74
2022/12/01 11:57:50;;;;;;;15.60;10.83;;;;;;;;;;5081227;28;20204;-75
2022/12/01 12:00:18;;;;;;;19.63;11.97;;;;;;;;;;5080880;28;20318;-75
2022/12/01 12:03:03;;;;;;;19.53;12.10;;;;;;;;;;5084809;28;20192;-75
2022/12/01 12:05:48;;;;;;;15.60;10.93;;;;;;;;;;5089578;28;20212;-74
2022/12/01 12:08:25;;;;;;;15.43;10.33;;;;;;;;;;5085426;28;20250;-75
2022/12/01 12:10:59;;;;;;;15.83;11.10;;;;;;;;;;5084300;28;20647;-76
2022/12/01 12:13:35;;;;;;;15.70;11.03;;;;;;;;;;5080929;28;20272;-77
2022/12/01 12:16:01;;;;;;;16.30;10.80;;;;;;;;;;5084036;28;20181;-74
2022/12/01 12:18:34;;;;;;;16.47;11.13;;;;;;;;;;5063571;28;20239;-74
2022/12/01 12:21:06;;;;;;;15.30;10.60;;;;;;;;;;5081003;28;20218;-74
2022/12/01 12:23:39;;;;;;;14.43;10.90;;;;;;;;;;5079323;28;20256;-72
2022/12/01 12:26:05;;;;;;;14.33;10.77;;;;;;;;;;5091413;28;20307;-73
2022/12/01 12:28:40;;;;;;;13.77;9.90;;;;;;;;;;5077410;28;20292;-72
2022/12/01 12:31:14;;;;;;;15.50;11.23;;;;;;;;;;5085843;28;20180;-76
2022/12/01 12:33:44;;;;;;;14.93;10.67;;;;;;;;;;5069491;28;21987;-74
2022/12/01 12:36:17;;;;;;;14.93;10.70;;;;;;;;;;5078408;28;20844;-75
2022/12/01 12:38:53;;;;;;;15.93;11.03;;;;;;;;;;5093852;28;20206;-73
2022/12/01 12:41:19;;;;;;;14.77;10.53;;;;;;;;;;5083426;28;20275;-72
2022/12/01 12:44:02;;;;;;;15.10;10.93;;;;;;;;;;5087497;28;20189;-72
2022/12/01 12:46:39;;;;;;;15.27;10.83;;;;;;;;;;5080818;28;20223;-75
2022/12/01 12:49:17;;;;;;;16.60;11.63;;;;;;;;;;5081386;28;20255;-77
2022/12/01 12:51:52;;;;;;;17.90;12.13;;;;;;;;;;5080063;28;20202;-75
2022/12/01 12:54:21;;;;;;;17.47;11.63;;;;;;;;;;5079407;28;20199;-73
2022/12/01 12:56:50;;;;;;;16.70;10.90;;;;;;;;;;5082948;28;20266;-76
2022/12/01 12:59:27;;;;;;;16.60;12.00;;;;;;;;;;5085818;28;20181;-76
2022/12/01 13:02:08;;;;;;;16.50;11.30;;;;;;;;;;5081674;28;20263;-74
2022/12/01 13:04:39;;;;;;;15.57;11.50;;;;;;;;;;5080172;28;20192;-74
2022/12/01 13:07:08;;;;;;;16.73;11.87;;;;;;;;;;5077306;28;20208;-74
2022/12/01 13:09:43;;;;;;;16.87;11.43;;;;;;;;;;5077552;28;20181;-73
2022/12/01 13:12:14;;;;;;;16.83;11.57;;;;;;;;;;5078683;28;20181;-73
2022/12/01 13:14:40;;;;;;;15.83;10.87;;;;;;;;;;5082657;28;20259;-73
2022/12/01 13:17:15;;;;;;;15.07;10.67;;;;;;;;;;5079980;28;20257;-73
2022/12/01 13:19:42;;;;;;;15.17;10.57;;;;;;;;;;5097255;28;20191;-77
2022/12/01 13:22:11;;;;;;;16.93;11.07;;;;;;;;;;5085217;28;20262;-73
2022/12/01 13:24:37;;;;;;;17.37;11.70;;;;;;;;;;5082669;28;20181;-76
2022/12/01 13:27:06;;;;;;;16.27;10.83;;;;;;;;;;5083088;28;20456;-78
2022/12/01 13:29:34;;;;;;;16.73;11.60;;;;;;;;;;5057697;28;20905;-79
2022/12/01 13:32:01;;;;;;;17.70;12.10;;;;;;;;;;5076094;28;20263;-80
2022/12/01 13:34:33;;;;;;;17.13;12.07;;;;;;;;;;5078349;28;20189;-78
2022/12/01 13:37:00;;;;;;;16.63;11.23;;;;;;;;;;5075114;28;20287;-79
2022/12/01 13:39:28;;;;;;;16.13;11.33;;;;;;;;;;5062649;28;20188;-79
2022/12/01 13:41:59;;;;;;;19.03;11.83;;;;;;;;;;5079940;28;20211;-80
2022/12/01 13:44:27;;;;;;;17.33;11.67;;;;;;;;;;5077463;28;20185;-78
2022/12/01 13:46:57;;;;;;;18.40;11.53;;;;;;;;;;5080153;28;20212;-79
2022/12/01 13:49:42;;;;;;;16.13;11.53;;;;;;;;;;5082432;28;20761;-78
2022/12/01 13:52:20;;;;;;;15.10;11.07;;;;;;;;;;5050008;28;20237;-78
2022/12/01 13:55:13;;;;;;;15.30;10.93;;;;;;;;;;5068213;28;20177;-78
2022/12/01 13:57:45;;;;;;;14.90;10.57;;;;;;;;;;5053567;28;20244;-81
2022/12/01 14:00:20;;;;;;;16.00;10.90;;;;;;;;;;5069619;28;21099;-78
2022/12/01 14:03:07;;;;;;;15.67;10.37;;;;;;;;;;5062690;28;20708;-78
2022/12/01 14:05:39;;;;;;;16.10;10.93;;;;;;;;;;5083379;28;20432;-79
2022/12/01 14:08:25;;;;;;;16.57;10.90;;;;;;;;;;5083673;28;20209;-78
2022/12/01 14:11:00;;;;;;;15.47;10.70;;;;;;;;;;5050171;28;20180;-78
2022/12/01 14:13:27;;;;;;;16.40;10.40;;;;;;;;;;5082019;28;20195;-78
2022/12/01 14:15:56;;;;;;;17.37;11.33;;;;;;;;;;5071791;28;20661;-77
2022/12/01 14:18:25;;;;;;;15.73;11.17;;;;;;;;;;5095054;28;20211;-78
2022/12/01 14:20:51;;;;;;;17.90;10.77;;;;;;;;;;5084219;28;20180;-79
2022/12/01 14:23:24;;;;;;;14.07;9.57;;;;;;;;;;5087555;28;20227;-77
2022/12/01 14:25:58;;;;;;;15.63;10.63;;;;;;;;;;5081774;28;20723;-80
2022/12/01 14:28:45;;;;;;;15.90;11.00;;;;;;;;;;5080919;28;20199;-79
2022/12/01 14:31:11;;;;;;;16.57;10.80;;;;;;;;;;5066373;28;20249;-78